Accueil
METAR-TAF:

METAR-TAF

Aéroports :

Aéroport de Pago Pago

Pago Pago, Îles mineures éloignées des États-Unis

latitude: 14-20S, longitude: 170-43W, altitude: 3 m

Observation

Le bulletin a été fait il y a 20 minutes, à 17:50 UTC
Vent calme
Température 25°C
Humidité 89%
Pression 1014 hPa
Visibilité: 19.3 km
Quelques nuages à une hauteur de 2000 ft

METAR: NSTU 191750Z 00000KT 12SM FEW020 25/23 A2993 RMK SLP137 8/100 T02490226 10270 20247 52010

Heure: 07:10 (18:10 UTC)

Prévision

Le bulletin a été fait il y a 6 heures et 38 minutes, à 11:32 UTC
Prévision valable du 19 à 12 UTC au 20 à 12 UTC
Vent 10 kt de est/sud-est
Visibilité: 10 km
Nuages épars à une hauteur de 1500 ft
Nuages épars à une hauteur de 4000 ft
Nuages épars à une hauteur de 10000 ft

TAF: NSTU 191132Z 1912/2012 11010KT P6SM SCT015 SCT040 SCT100

Observations et prévisions météorologiques de plus de 4000 aéroports (messages METAR et TAF).

Les stations disponibles sont représentées par des disques jaunes et rouges sur la carte.

Passer la souris dessus pour voir le nom de la station.

Cliquer dessus pour voir les observations et prévisions météorologiques.

Pour changer de carte: cliquez sur les boutons verts avec une croix noire pour zoomer, sur le bouton vert avec un tiret pour effectuer un zoom arrière, ou sur les flèches vertes pour les cartes adjacentes.


METAR-TAF: